createdAt,value
2023-03-12T00:03:01.479Z,4.47
2023-03-12T00:06:10.490Z,4.50
2023-03-12T00:09:13.637Z,5.07
2023-03-12T00:12:16.496Z,5.00
2023-03-12T00:15:19.477Z,4.37
2023-03-12T00:18:22.234Z,4.43
2023-03-12T00:21:26.463Z,4.47
2023-03-12T00:24:29.057Z,9.50
2023-03-12T00:27:31.690Z,13.33
2023-03-12T00:30:34.291Z,20.20
2023-03-12T00:33:36.865Z,19.30
2023-03-12T00:36:41.298Z,17.10
2023-03-12T00:39:43.884Z,8.37
2023-03-12T00:42:46.461Z,6.83
2023-03-12T00:45:49.124Z,6.97
2023-03-12T00:48:51.745Z,4.97
2023-03-12T00:51:55.747Z,4.80
2023-03-12T00:54:58.870Z,4.50
2023-03-12T00:58:01.526Z,4.20
2023-03-12T01:01:05.239Z,3.70
2023-03-12T01:04:08.050Z,4.00
2023-03-12T01:07:12.000Z,3.80
2023-03-12T01:10:16.805Z,4.10
2023-03-12T01:13:19.569Z,3.80
2023-03-12T01:16:22.268Z,4.33
2023-03-12T01:19:24.941Z,4.33
2023-03-12T01:22:28.985Z,4.47
2023-03-12T01:25:31.628Z,4.97
2023-03-12T01:28:34.256Z,4.73
2023-03-12T01:31:36.999Z,6.00
2023-03-12T01:34:39.593Z,5.80
2023-03-12T01:37:43.571Z,6.17
2023-03-12T01:40:46.213Z,7.50
2023-03-12T01:43:49.121Z,7.27
2023-03-12T01:46:51.709Z,7.27
2023-03-12T01:49:56.809Z,7.37
2023-03-12T01:53:01.141Z,7.43
2023-03-12T01:56:04.193Z,7.53
2023-03-12T01:59:13.455Z,6.87
2023-03-12T02:02:18.555Z,6.83
2023-03-12T02:05:26.290Z,7.57
2023-03-12T02:08:30.835Z,7.20
2023-03-12T02:11:33.498Z,6.70
2023-03-12T02:14:36.513Z,6.80
2023-03-12T02:17:40.394Z,5.73
2023-03-12T02:20:51.556Z,5.37
2023-03-12T02:24:02.841Z,5.73
2023-03-12T02:27:08.916Z,6.73
2023-03-12T02:30:15.844Z,5.90
2023-03-12T02:33:18.809Z,7.20
2023-03-12T02:36:21.518Z,5.70
2023-03-12T02:39:24.732Z,6.60
2023-03-12T02:42:28.778Z,6.90
2023-03-12T02:45:31.510Z,6.63
2023-03-12T02:48:34.129Z,7.20
2023-03-12T02:51:36.708Z,7.70
2023-03-12T02:54:39.308Z,8.53
2023-03-12T02:57:43.849Z,8.03
2023-03-12T03:00:46.431Z,8.50
2023-03-12T03:03:49.243Z,7.93
2023-03-12T03:06:52.381Z,8.47
2023-03-12T03:09:55.057Z,6.93
2023-03-12T03:12:59.360Z,6.20
2023-03-12T03:16:03.750Z,6.07
2023-03-12T03:19:06.759Z,6.00
2023-03-12T03:22:09.394Z,6.30
2023-03-12T03:25:12.181Z,5.90
2023-03-12T03:28:16.136Z,5.53
2023-03-12T03:31:19.759Z,5.67
2023-03-12T03:34:22.904Z,5.30
2023-03-12T03:37:25.549Z,5.47
2023-03-12T03:40:28.263Z,5.43
2023-03-12T03:43:32.505Z,4.90
2023-03-12T03:46:35.535Z,5.00
2023-03-12T03:49:38.197Z,5.13
2023-03-12T03:52:40.964Z,5.33
2023-03-12T03:55:43.608Z,4.90
2023-03-12T03:58:48.032Z,5.40
2023-03-12T04:01:50.633Z,4.53
2023-03-12T04:04:53.309Z,5.23
2023-03-12T04:07:56.740Z,4.87
2023-03-12T04:10:59.486Z,4.70
2023-03-12T04:14:03.696Z,5.20
2023-03-12T04:17:06.358Z,4.80
2023-03-12T04:20:11.169Z,5.43
2023-03-12T04:23:13.774Z,5.20
2023-03-12T04:26:17.444Z,6.10
2023-03-12T04:29:21.536Z,5.60
2023-03-12T04:32:24.141Z,6.03
2023-03-12T04:35:26.911Z,5.67
2023-03-12T04:38:29.736Z,5.57
2023-03-12T04:41:35.078Z,5.77
2023-03-12T04:44:40.945Z,5.40
2023-03-12T04:47:43.749Z,5.60
2023-03-12T04:50:46.332Z,5.73
2023-03-12T04:53:49.010Z,6.10
2023-03-12T04:56:52.199Z,5.53
2023-03-12T04:59:56.528Z,5.10
2023-03-12T05:02:59.154Z,5.50
2023-03-12T05:06:01.892Z,5.90
2023-03-12T05:09:04.861Z,5.47
2023-03-12T05:12:08.235Z,5.67
2023-03-12T05:15:12.669Z,5.53
2023-03-12T05:18:15.688Z,5.73
2023-03-12T05:21:20.925Z,5.80
2023-03-12T05:24:23.644Z,5.37
2023-03-12T05:27:26.492Z,5.33
2023-03-12T05:30:30.555Z,5.60
2023-03-12T05:33:33.189Z,5.00
2023-03-12T05:36:35.773Z,5.70
2023-03-12T05:39:38.407Z,5.80
2023-03-12T05:42:41.132Z,6.10
2023-03-12T05:45:45.234Z,5.90
2023-03-12T05:48:47.882Z,5.70
2023-03-12T05:51:51.426Z,5.63
2023-03-12T05:54:54.423Z,5.63
2023-03-12T05:57:57.066Z,5.80
2023-03-12T06:01:01.147Z,5.73
2023-03-12T06:04:03.905Z,5.97
2023-03-12T06:07:06.594Z,5.73
2023-03-12T06:10:10.728Z,5.50
2023-03-12T06:13:13.361Z,5.83
2023-03-12T06:16:20.572Z,5.10
2023-03-12T06:19:23.276Z,5.90
2023-03-12T06:22:26.377Z,6.37
2023-03-12T06:25:29.119Z,5.97
2023-03-12T06:28:31.746Z,5.53
2023-03-12T06:31:38.610Z,5.20
2023-03-12T06:34:41.538Z,5.83
2023-03-12T06:37:44.131Z,5.37
2023-03-12T06:40:55.200Z,5.20
2023-03-12T06:43:59.045Z,5.83
2023-03-12T06:47:02.983Z,6.00
2023-03-12T06:50:06.428Z,5.40
2023-03-12T06:53:09.359Z,5.10
2023-03-12T06:56:12.145Z,5.53
2023-03-12T06:59:14.747Z,4.87
2023-03-12T07:02:18.798Z,5.17
2023-03-12T07:05:21.643Z,4.87
2023-03-12T07:08:24.802Z,5.30
2023-03-12T07:11:27.394Z,5.10
2023-03-12T07:14:29.974Z,4.70
2023-03-12T07:17:34.252Z,4.70
2023-03-12T07:20:39.145Z,4.87
2023-03-12T07:23:41.724Z,5.27
2023-03-12T07:26:44.391Z,5.90
2023-03-12T07:29:47.146Z,5.30
2023-03-12T07:32:51.153Z,5.47
2023-03-12T07:35:53.971Z,4.80
2023-03-12T07:38:56.758Z,4.73
2023-03-12T07:41:59.593Z,5.00
2023-03-12T07:45:04.169Z,4.20
2023-03-12T07:48:09.358Z,4.53
2023-03-12T07:51:12.076Z,4.57
2023-03-12T07:54:14.932Z,5.13
2023-03-12T07:57:18.022Z,4.40
2023-03-12T08:00:21.509Z,4.57
2023-03-12T08:03:25.790Z,4.30
2023-03-12T08:06:28.895Z,4.37
2023-03-12T08:09:32.420Z,4.03
2023-03-12T08:12:35.532Z,3.93
2023-03-12T08:15:38.143Z,4.20
2023-03-12T08:18:42.960Z,4.30
2023-03-12T08:21:45.663Z,4.20
2023-03-12T08:24:48.862Z,4.40
2023-03-12T08:27:51.678Z,3.80
2023-03-12T08:30:56.011Z,3.60
2023-03-12T08:34:00.243Z,3.83
2023-03-12T08:37:03.279Z,4.33
2023-03-12T08:40:12.901Z,3.50
2023-03-12T08:43:15.563Z,3.67
2023-03-12T08:46:18.217Z,3.67
2023-03-12T08:49:23.799Z,3.40
2023-03-12T08:52:26.404Z,3.60
2023-03-12T08:55:30.201Z,3.47
2023-03-12T08:58:33.174Z,3.50
2023-03-12T09:01:35.823Z,3.23
2023-03-12T09:04:40.139Z,3.43
2023-03-12T09:07:43.070Z,3.33
2023-03-12T09:10:49.445Z,3.47
2023-03-12T09:14:26.544Z,3.80
2023-03-12T09:17:14.716Z,3.47
2023-03-12T09:20:19.050Z,3.50
2023-03-12T09:23:21.834Z,3.10
2023-03-12T09:26:24.447Z,3.73
2023-03-12T09:29:27.022Z,3.47
2023-03-12T09:32:29.838Z,3.67
2023-03-12T09:35:33.857Z,3.43
2023-03-12T09:38:37.881Z,3.70
2023-03-12T09:41:43.681Z,3.50
2023-03-12T09:44:48.164Z,3.30
2023-03-12T09:47:53.282Z,3.53
2023-03-12T09:50:57.331Z,3.70
2023-03-12T09:54:04.584Z,3.53
2023-03-12T09:57:13.455Z,3.30
2023-03-12T10:00:18.393Z,3.93
2023-03-12T10:03:37.740Z,3.30
2023-03-12T10:06:47.314Z,3.50
2023-03-12T10:10:16.770Z,3.57
2023-03-12T10:13:38.161Z,3.73
2023-03-12T10:16:55.175Z,3.60
2023-03-12T10:20:20.400Z,3.73
2023-03-12T10:23:38.265Z,3.40
2023-03-12T10:26:43.936Z,3.63
2023-03-12T10:29:49.890Z,3.50
2023-03-12T10:32:57.235Z,3.47
2023-03-12T10:36:00.020Z,3.50
2023-03-12T10:39:04.830Z,3.10
2023-03-12T10:42:15.677Z,3.47
2023-03-12T10:45:30.767Z,3.27
2023-03-12T10:48:33.458Z,3.50
2023-03-12T10:51:55.229Z,3.80
2023-03-12T10:55:13.457Z,3.43
2023-03-12T10:58:24.467Z,3.30
2023-03-12T11:01:29.866Z,3.70
2023-03-12T11:04:33.592Z,3.83
2023-03-12T11:07:36.430Z,3.80
2023-03-12T11:10:44.444Z,3.70
2023-03-12T11:13:47.022Z,3.70
2023-03-12T11:16:50.413Z,3.57
2023-03-12T11:19:53.283Z,2.93
2023-03-12T11:22:56.058Z,3.33
2023-03-12T11:26:03.224Z,3.13
2023-03-12T11:29:14.260Z,3.07
2023-03-12T11:32:20.070Z,3.17
2023-03-12T11:35:36.628Z,3.00
2023-03-12T11:38:42.753Z,2.87
2023-03-12T11:42:08.104Z,2.90
2023-03-12T11:45:20.004Z,2.80
2023-03-12T11:48:29.910Z,3.20
2023-03-12T11:51:44.219Z,2.63
2023-03-12T11:55:06.737Z,2.50
2023-03-12T11:58:27.620Z,3.10
2023-03-12T12:01:40.819Z,2.90
2023-03-12T12:05:05.778Z,2.80
2023-03-12T12:08:33.205Z,2.87
2023-03-12T12:11:46.141Z,2.80
2023-03-12T12:15:08.756Z,3.00
2023-03-12T12:18:30.555Z,3.00
2023-03-12T12:21:50.297Z,2.80
2023-03-12T12:25:22.487Z,2.50
2023-03-12T12:28:38.012Z,2.30
2023-03-12T12:31:50.084Z,2.60
2023-03-12T12:35:04.480Z,2.23
2023-03-12T12:38:14.246Z,2.60
2023-03-12T12:41:19.259Z,2.17
2023-03-12T12:44:26.271Z,2.30
2023-03-12T12:47:41.454Z,2.47
2023-03-12T12:50:47.148Z,2.87
2023-03-12T12:53:55.117Z,2.77
2023-03-12T12:57:04.584Z,2.40
2023-03-12T13:00:24.149Z,2.83
2023-03-12T13:03:30.496Z,2.67
2023-03-12T13:06:58.740Z,2.07
2023-03-12T13:10:07.568Z,1.90
2023-03-12T13:13:14.088Z,2.13
2023-03-12T13:16:33.726Z,2.20
2023-03-12T13:19:45.020Z,2.20
2023-03-12T13:23:01.914Z,2.50
2023-03-12T13:26:09.859Z,2.17
2023-03-12T13:29:24.408Z,1.93
2023-03-12T13:33:07.526Z,2.13
2023-03-12T13:36:28.168Z,2.20
2023-03-12T13:39:33.704Z,2.10
2023-03-12T13:42:39.912Z,2.00
2023-03-12T13:45:59.198Z,2.43
2023-03-12T13:49:07.008Z,2.03
2023-03-12T13:52:20.018Z,2.60
2023-03-12T13:55:27.588Z,2.03
2023-03-12T13:58:31.695Z,2.23
2023-03-12T14:01:38.763Z,2.63
2023-03-12T14:04:43.146Z,2.00
2023-03-12T14:08:19.042Z,2.00
2023-03-12T14:11:30.818Z,2.00
2023-03-12T14:15:00.341Z,2.30
2023-03-12T14:18:13.616Z,1.97
2023-03-12T14:21:18.494Z,2.30
2023-03-12T14:24:28.606Z,2.07
2023-03-12T14:27:34.820Z,2.13
2023-03-12T14:30:45.773Z,2.30
2023-03-12T14:33:57.002Z,1.80
2023-03-12T14:37:05.739Z,2.70
2023-03-12T14:40:22.067Z,2.73
2023-03-12T14:43:27.996Z,2.50
2023-03-12T14:46:30.930Z,2.10
2023-03-12T14:49:33.728Z,2.30
2023-03-12T14:52:36.352Z,2.60
2023-03-12T14:55:40.386Z,2.17
2023-03-12T14:58:45.047Z,2.30
2023-03-12T15:01:48.633Z,2.43
2023-03-12T15:04:55.156Z,2.40
2023-03-12T15:08:02.601Z,2.60
2023-03-12T15:11:06.761Z,2.60
2023-03-12T15:14:15.304Z,3.03
2023-03-12T15:17:20.392Z,2.80
2023-03-12T15:20:25.584Z,3.90
2023-03-12T15:23:31.361Z,2.97
2023-03-12T15:26:38.028Z,2.93
2023-03-12T15:29:42.783Z,2.70
2023-03-12T15:33:05.135Z,3.00
2023-03-12T15:36:23.928Z,3.00
2023-03-12T15:39:29.699Z,2.97
2023-03-12T15:42:39.561Z,3.17
2023-03-12T15:45:42.319Z,3.57
2023-03-12T15:48:50.262Z,3.27
2023-03-12T15:52:01.463Z,3.20
2023-03-12T15:55:09.074Z,3.07
2023-03-12T15:58:29.774Z,3.33
2023-03-12T16:01:45.131Z,3.20
2023-03-12T16:04:47.713Z,3.10
2023-03-12T16:07:50.708Z,2.97
2023-03-12T16:10:55.381Z,3.07
2023-03-12T16:14:04.377Z,3.30
2023-03-12T16:17:11.784Z,2.90
2023-03-12T16:20:17.402Z,3.40
2023-03-12T16:23:20.747Z,3.90
2023-03-12T16:26:23.465Z,4.13
2023-03-12T16:29:33.077Z,3.23
2023-03-12T16:32:35.809Z,3.57
2023-03-12T16:35:38.572Z,3.70
2023-03-12T16:38:41.175Z,3.40
2023-03-12T16:41:44.137Z,3.50
2023-03-12T16:44:48.369Z,4.20
2023-03-12T16:47:56.009Z,4.60
2023-03-12T16:50:58.999Z,5.83
2023-03-12T16:54:11.169Z,4.30
2023-03-12T16:57:20.602Z,4.60
2023-03-12T17:00:28.005Z,4.10
2023-03-12T17:03:36.218Z,3.80
2023-03-12T17:06:40.394Z,4.00
2023-03-12T17:09:42.968Z,5.40
2023-03-12T17:12:47.994Z,4.40
2023-03-12T17:15:52.913Z,4.33
2023-03-12T17:18:55.970Z,3.93
2023-03-12T17:21:58.625Z,4.60
2023-03-12T17:25:01.202Z,4.40
2023-03-12T17:28:04.336Z,4.30
2023-03-12T17:31:08.755Z,4.43
2023-03-12T17:34:11.445Z,4.83
2023-03-12T17:37:14.140Z,5.77
2023-03-12T17:40:16.892Z,5.30
2023-03-12T17:43:19.658Z,4.53
2023-03-12T17:46:23.857Z,4.60
2023-03-12T17:49:26.828Z,4.20
2023-03-12T17:52:29.575Z,4.20
2023-03-12T17:55:32.206Z,4.03
2023-03-12T17:58:35.010Z,4.37
2023-03-12T18:01:39.109Z,4.50
2023-03-12T18:04:42.102Z,4.77
2023-03-12T18:07:44.806Z,5.57
2023-03-12T18:10:48.798Z,5.20
2023-03-12T18:13:51.474Z,6.43
2023-03-12T18:16:55.540Z,6.17
2023-03-12T18:19:58.247Z,5.10
2023-03-12T18:23:00.876Z,5.90
2023-03-12T18:26:04.041Z,5.83
2023-03-12T18:29:06.750Z,6.30
2023-03-12T18:32:10.802Z,6.30
2023-03-12T18:35:13.496Z,6.10
2023-03-12T18:38:16.210Z,6.60
2023-03-12T18:41:18.850Z,7.47
2023-03-12T18:44:21.627Z,7.20
2023-03-12T18:47:25.811Z,8.57
2023-03-12T18:50:28.400Z,8.30
2023-03-12T18:53:33.050Z,8.37
2023-03-12T18:56:38.078Z,10.13
2023-03-12T18:59:45.092Z,10.53
2023-03-12T19:02:49.248Z,11.00
2023-03-12T19:06:01.923Z,10.73
2023-03-12T19:09:05.193Z,11.53
2023-03-12T19:12:08.107Z,12.80
2023-03-12T19:15:12.144Z,13.00
2023-03-12T19:18:16.154Z,13.40
2023-03-12T19:21:19.297Z,15.30
2023-03-12T19:24:21.974Z,15.50
2023-03-12T19:27:24.667Z,16.23
2023-03-12T19:30:30.571Z,17.53
2023-03-12T19:33:34.810Z,17.77
2023-03-12T19:36:37.567Z,16.90
2023-03-12T19:39:40.183Z,19.57
2023-03-12T19:42:43.146Z,22.50
2023-03-12T19:45:46.346Z,22.63
2023-03-12T19:48:50.456Z,21.40
2023-03-12T19:51:53.120Z,23.67
2023-03-12T19:55:04.335Z,26.60
2023-03-12T19:58:08.333Z,26.60
2023-03-12T20:01:11.008Z,28.33
2023-03-12T20:04:15.046Z,27.87
2023-03-12T20:07:18.420Z,26.60
2023-03-12T20:10:21.491Z,26.73
2023-03-12T20:13:24.087Z,29.10
2023-03-12T20:16:26.743Z,28.50
2023-03-12T20:19:30.828Z,29.40
2023-03-12T20:22:36.105Z,29.90
2023-03-12T20:25:40.272Z,28.70
2023-03-12T20:28:43.003Z,29.57
2023-03-12T20:31:45.647Z,28.57
2023-03-12T20:34:49.635Z,27.53
2023-03-12T20:37:52.204Z,29.20
2023-03-12T20:40:54.873Z,28.93
2023-03-12T20:43:57.857Z,29.10
2023-03-12T20:47:00.514Z,27.43
2023-03-12T20:50:04.834Z,25.07
2023-03-12T20:53:07.500Z,24.87
2023-03-12T20:56:10.917Z,25.03
2023-03-12T20:59:13.680Z,23.30
2023-03-12T21:02:16.757Z,23.07
2023-03-12T21:05:22.153Z,22.23
2023-03-12T21:08:26.869Z,21.03
2023-03-12T21:11:31.152Z,22.73
2023-03-12T21:14:33.923Z,19.73
2023-03-12T21:17:38.294Z,18.87
2023-03-12T21:20:42.886Z,19.30
2023-03-12T21:23:45.510Z,19.23
2023-03-12T21:26:48.199Z,18.57
2023-03-12T21:29:50.984Z,17.27
2023-03-12T21:32:53.634Z,17.47
2023-03-12T21:35:57.781Z,17.73
2023-03-12T21:39:02.050Z,19.23
2023-03-12T21:42:04.877Z,17.23
2023-03-12T21:45:09.265Z,17.93
2023-03-12T21:48:11.932Z,16.33
2023-03-12T21:51:18.107Z,15.90
2023-03-12T21:54:20.691Z,16.63
2023-03-12T21:57:23.306Z,16.80
2023-03-12T22:00:26.067Z,16.30
2023-03-12T22:03:28.650Z,16.30
2023-03-12T22:06:32.942Z,15.53
2023-03-12T22:09:35.533Z,15.77
2023-03-12T22:12:38.392Z,15.00
2023-03-12T22:15:41.013Z,13.70
2023-03-12T22:18:45.648Z,14.77
2023-03-12T22:21:49.606Z,13.73
2023-03-12T22:24:52.176Z,15.17
2023-03-12T22:27:54.797Z,14.30
2023-03-12T22:31:01.937Z,16.20
2023-03-12T22:34:04.562Z,14.90
2023-03-12T22:37:08.515Z,14.17
2023-03-12T22:40:12.490Z,14.27
2023-03-12T22:43:15.482Z,14.33
2023-03-12T22:46:21.912Z,14.83
2023-03-12T22:49:24.499Z,13.67
2023-03-12T22:52:28.408Z,15.40
2023-03-12T22:55:31.052Z,13.97
2023-03-12T22:58:34.318Z,12.93
2023-03-12T23:01:36.935Z,11.97
2023-03-12T23:04:39.722Z,12.77
2023-03-12T23:07:43.765Z,12.63
2023-03-12T23:10:51.919Z,14.00
2023-03-12T23:13:54.754Z,11.67
2023-03-12T23:16:57.884Z,11.33
2023-03-12T23:20:00.485Z,10.33
2023-03-12T23:23:04.447Z,9.93
2023-03-12T23:26:07.198Z,10.10
2023-03-12T23:29:12.983Z,10.50
2023-03-12T23:32:15.719Z,10.73
2023-03-12T23:35:18.693Z,9.43
2023-03-12T23:38:22.767Z,9.10
2023-03-12T23:41:29.173Z,9.43
2023-03-12T23:44:32.003Z,8.57
2023-03-12T23:47:34.601Z,8.87
2023-03-12T23:50:37.877Z,8.63
2023-03-12T23:53:43.944Z,7.90
2023-03-12T23:56:46.514Z,8.47
2023-03-12T23:59:49.146Z,8.37
